Time;durP1;ratioP1;P1;durP2;ratioP2;P2;SDS_P1;SDS_P2;PMS_P1;PMS_P2;Temp;Humidity;BMP_temperature;BMP_pressure;BME280_temperature;BME280_humidity;BME280_pressure;Samples;Min_cycle;Max_cycle;Signal;HPM_P1;HPM_P2
2023/10/04 00:01:15;;;;;;;17.33;3.58;;;13.60;99.90;;;;;;4901196;29;20248;-66
2023/10/04 00:03:42;;;;;;;20.42;4.20;;;13.50;99.90;;;;;;4901088;29;20193;-69
2023/10/04 00:06:09;;;;;;;18.52;3.58;;;13.50;99.90;;;;;;4902114;29;20196;-69
2023/10/04 00:08:35;;;;;;;20.85;3.80;;;13.50;99.90;;;;;;4899756;29;20203;-71
2023/10/04 00:11:02;;;;;;;14.80;3.72;;;13.50;99.90;;;;;;4902005;29;20188;-67
2023/10/04 00:13:28;;;;;;;21.60;4.15;;;13.50;99.90;;;;;;4899422;29;20221;-67
2023/10/04 00:15:54;;;;;;;11.70;3.63;;;13.40;99.90;;;;;;4898440;29;20687;-69
2023/10/04 00:18:20;;;;;;;16.98;4.05;;;13.40;99.90;;;;;;4899009;29;20193;-69
2023/10/04 00:20:46;;;;;;;13.80;3.00;;;13.40;99.90;;;;;;4899274;29;20199;-70
2023/10/04 00:23:13;;;;;;;14.20;3.60;;;13.40;99.90;;;;;;4897506;29;20224;-71
2023/10/04 00:25:40;;;;;;;16.20;3.33;;;13.40;99.90;;;;;;4898001;29;20296;-68
2023/10/04 00:28:07;;;;;;;21.00;3.50;;;13.40;99.90;;;;;;4898232;29;20193;-68
2023/10/04 00:30:33;;;;;;;17.38;4.07;;;13.30;99.90;;;;;;4898616;29;20197;-70
2023/10/04 00:33:04;;;;;;;17.10;3.60;;;13.30;99.90;;;;;;4912995;29;20690;-68
2023/10/04 00:35:30;;;;;;;20.23;3.63;;;13.30;99.90;;;;;;4896537;29;20283;-68
2023/10/04 00:37:57;;;;;;;19.67;3.70;;;13.30;99.90;;;;;;4912183;29;20192;-69
2023/10/04 00:40:31;;;;;;;24.10;3.67;;;13.30;99.90;;;;;;4897368;29;20207;-69
2023/10/04 00:43:01;;;;;;;16.98;3.78;;;13.30;99.90;;;;;;4912994;29;20226;-68
2023/10/04 00:45:32;;;;;;;21.02;4.05;;;13.30;99.90;;;;;;4882027;29;20232;-68
2023/10/04 00:47:59;;;;;;;15.15;3.25;;;13.20;99.90;;;;;;4897023;29;20180;-69
2023/10/04 00:50:31;;;;;;;15.55;3.63;;;13.20;99.90;;;;;;4896332;29;20283;-69
2023/10/04 00:53:22;;;;;;;18.30;3.53;;;13.30;99.90;;;;;;4898365;29;20189;-68
2023/10/04 00:55:52;;;;;;;19.73;3.60;;;13.20;99.90;;;;;;4886222;29;20192;-68
2023/10/04 00:58:19;;;;;;;18.20;3.65;;;13.20;99.90;;;;;;4896506;29;20653;-66
2023/10/04 01:00:47;;;;;;;16.45;3.40;;;13.30;99.90;;;;;;4897387;29;20189;-68
2023/10/04 01:03:15;;;;;;;18.85;3.72;;;13.20;99.90;;;;;;4897322;29;20228;-68
2023/10/04 01:05:47;;;;;;;15.30;3.40;;;13.20;99.90;;;;;;4897155;29;20625;-67
2023/10/04 01:08:17;;;;;;;14.05;3.55;;;13.20;99.90;;;;;;4897474;29;20244;-71
2023/10/04 01:10:46;;;;;;;15.57;2.97;;;13.10;99.90;;;;;;4910140;29;20657;-69
2023/10/04 01:13:15;;;;;;;20.27;3.72;;;13.20;99.90;;;;;;4897130;29;20604;-68
2023/10/04 01:15:41;;;;;;;16.77;3.08;;;13.10;99.90;;;;;;4897150;29;20292;-68
2023/10/04 01:18:11;;;;;;;14.18;2.85;;;13.10;99.90;;;;;;4896270;29;20641;-68
2023/10/04 01:20:39;;;;;;;15.82;3.30;;;13.10;99.90;;;;;;4892335;29;20189;-67
2023/10/04 01:23:06;;;;;;;14.05;3.28;;;13.00;99.90;;;;;;4897327;29;20228;-66
2023/10/04 01:25:34;;;;;;;16.25;3.08;;;13.00;99.90;;;;;;4897083;29;20653;-66
2023/10/04 01:28:02;;;;;;;15.82;3.38;;;13.00;99.90;;;;;;4894775;29;20193;-69
2023/10/04 01:30:29;;;;;;;18.95;4.07;;;13.00;99.90;;;;;;4896445;29;20196;-68
2023/10/04 01:32:55;;;;;;;17.50;3.33;;;13.00;99.90;;;;;;4897241;29;20197;-67
2023/10/04 01:35:25;;;;;;;15.02;3.35;;;13.00;99.90;;;;;;4912340;29;20188;-68
2023/10/04 01:37:52;;;;;;;19.52;3.78;;;13.00;99.90;;;;;;4897544;29;20275;-68
2023/10/04 01:40:19;;;;;;;19.40;3.50;;;13.00;99.90;;;;;;4896783;29;20716;-68
2023/10/04 01:42:45;;;;;;;18.92;3.10;;;13.00;99.90;;;;;;4897681;29;20764;-67
2023/10/04 01:45:17;;;;;;;20.38;3.30;;;13.00;99.90;;;;;;4896882;29;20223;-67
2023/10/04 01:47:45;;;;;;;20.20;3.10;;;13.00;99.90;;;;;;4900679;29;20199;-68
2023/10/04 01:50:11;;;;;;;17.83;3.38;;;13.00;99.90;;;;;;4895533;29;20189;-67
2023/10/04 01:52:38;;;;;;;17.65;3.10;;;12.90;99.90;;;;;;4909871;29;20200;-68
2023/10/04 01:55:10;;;;;;;14.32;3.10;;;13.00;99.90;;;;;;4895644;29;20618;-68
2023/10/04 01:57:38;;;;;;;13.30;2.97;;;13.00;99.90;;;;;;4896033;29;20598;-68
2023/10/04 02:00:06;;;;;;;18.38;3.63;;;13.00;99.90;;;;;;4894481;29;20754;-68
2023/10/04 02:02:41;;;;;;;15.73;3.15;;;13.00;99.90;;;;;;4897167;29;20224;-69
2023/10/04 02:05:10;;;;;;;17.15;3.50;;;13.00;99.90;;;;;;4897081;29;20189;-67
2023/10/04 02:07:41;;;;;;;15.55;3.67;;;13.00;99.90;;;;;;4911782;29;20189;-67
2023/10/04 02:10:17;;;;;;;13.05;3.35;;;13.00;99.90;;;;;;4896382;29;20196;-68
2023/10/04 02:12:44;;;;;;;18.45;3.20;;;13.00;99.90;;;;;;4895072;29;20230;-68
2023/10/04 02:15:17;;;;;;;16.90;3.08;;;13.00;99.90;;;;;;4895836;29;20367;-68
2023/10/04 02:17:45;;;;;;;21.48;3.60;;;13.00;99.90;;;;;;4896928;29;20200;-67
2023/10/04 02:20:19;;;;;;;19.33;3.03;;;13.00;99.90;;;;;;4895703;29;20192;-69
2023/10/04 02:22:45;;;;;;;17.10;3.42;;;13.00;99.90;;;;;;4895439;29;20288;-67
2023/10/04 02:25:13;;;;;;;17.15;3.15;;;13.00;99.90;;;;;;4863673;29;20283;-68
2023/10/04 02:27:41;;;;;;;14.52;3.20;;;13.00;99.90;;;;;;4907908;29;20433;-67
2023/10/04 02:30:13;;;;;;;17.50;2.95;;;13.00;99.90;;;;;;4896069;29;20193;-67
2023/10/04 02:32:43;;;;;;;18.95;3.20;;;13.00;99.90;;;;;;4895142;29;20191;-69
2023/10/04 02:35:22;;;;;;;22.05;3.47;;;13.00;99.90;;;;;;4896456;29;20262;-66
2023/10/04 02:37:54;;;;;;;16.40;3.15;;;13.00;99.90;;;;;;4895314;29;20239;-66
2023/10/04 02:40:27;;;;;;;22.27;3.72;;;13.00;99.90;;;;;;4893469;29;20196;-67
2023/10/04 02:42:58;;;;;;;19.05;3.38;;;12.90;99.90;;;;;;4894411;29;20224;-68
2023/10/04 02:45:26;;;;;;;16.58;2.97;;;12.90;99.90;;;;;;4895093;29;20185;-66
2023/10/04 02:47:53;;;;;;;19.42;3.25;;;12.90;99.90;;;;;;4879668;29;20180;-66
2023/10/04 02:50:23;;;;;;;18.85;3.50;;;12.90;99.90;;;;;;4896364;29;20642;-65
2023/10/04 02:52:50;;;;;;;17.35;3.30;;;13.00;99.90;;;;;;4894514;29;20212;-67
2023/10/04 02:55:18;;;;;;;13.85;3.20;;;13.00;99.90;;;;;;4894365;29;20208;-66
2023/10/04 02:57:49;;;;;;;16.02;3.05;;;13.00;99.90;;;;;;4910734;29;20609;-66
2023/10/04 03:00:19;;;;;;;25.42;3.42;;;13.00;99.90;;;;;;4910290;29;20185;-66
2023/10/04 03:02:50;;;;;;;20.20;3.30;;;13.00;99.90;;;;;;4896159;29;20272;-67
2023/10/04 03:05:21;;;;;;;22.77;3.58;;;13.10;99.90;;;;;;4894605;29;20181;-68
2023/10/04 03:07:52;;;;;;;17.70;3.63;;;13.10;99.90;;;;;;4895374;29;20184;-68
2023/10/04 03:10:25;;;;;;;16.88;3.47;;;13.20;99.90;;;;;;4895083;29;20295;-68
2023/10/04 03:13:01;;;;;;;19.27;3.15;;;13.20;99.90;;;;;;4894564;29;20235;-67
2023/10/04 03:15:29;;;;;;;20.33;3.40;;;13.20;99.90;;;;;;4909992;29;20192;-68
2023/10/04 03:17:57;;;;;;;17.02;3.47;;;13.20;99.90;;;;;;4879049;29;20240;-68
2023/10/04 03:20:30;;;;;;;15.38;3.30;;;13.20;99.90;;;;;;4894177;29;20289;-67
2023/10/04 03:23:07;;;;;;;16.98;3.08;;;13.20;99.90;;;;;;4879753;29;20224;-67
2023/10/04 03:25:34;;;;;;;16.40;2.97;;;13.10;99.90;;;;;;4881122;29;20189;-67
2023/10/04 03:28:01;;;;;;;19.40;3.25;;;13.20;99.90;;;;;;4879349;29;20189;-67
2023/10/04 03:30:27;;;;;;;22.38;3.00;;;13.20;99.90;;;;;;4893224;29;20196;-68
2023/10/04 03:32:55;;;;;;;18.50;3.42;;;13.10;99.90;;;;;;4894545;29;20653;-66
2023/10/04 03:35:26;;;;;;;14.45;3.17;;;13.10;99.90;;;;;;4910790;29;20193;-70
2023/10/04 03:37:58;;;;;;;21.20;3.83;;;13.10;99.90;;;;;;4888667;29;20196;-68
2023/10/04 03:40:34;;;;;;;19.58;3.60;;;13.10;99.90;;;;;;4893080;29;20192;-67
2023/10/04 03:43:04;;;;;;;19.60;3.72;;;13.10;99.90;;;;;;4890326;29;20304;-69
2023/10/04 03:45:30;;;;;;;13.95;2.92;;;13.00;99.90;;;;;;4895191;29;20223;-69
2023/10/04 03:47:57;;;;;;;21.48;3.30;;;13.00;99.90;;;;;;4911084;29;20197;-68
2023/10/04 03:50:24;;;;;;;13.95;2.88;;;13.00;99.90;;;;;;4896521;29;20199;-69
2023/10/04 03:52:53;;;;;;;15.75;2.80;;;13.00;99.90;;;;;;4901466;29;20197;-70
2023/10/04 03:55:19;;;;;;;17.77;3.22;;;13.00;99.90;;;;;;4901696;29;20188;-69
2023/10/04 03:57:45;;;;;;;17.75;3.20;;;13.10;99.90;;;;;;4901334;29;20220;-69
2023/10/04 04:00:15;;;;;;;15.88;3.38;;;13.10;99.90;;;;;;4898624;29;20196;-70
2023/10/04 04:02:41;;;;;;;15.02;3.60;;;13.10;99.90;;;;;;4895480;29;20223;-69
2023/10/04 04:05:14;;;;;;;13.20;2.92;;;13.10;99.90;;;;;;4898459;29;20184;-68
2023/10/04 04:07:41;;;;;;;13.05;3.00;;;13.00;99.90;;;;;;4899059;29;20213;-67
2023/10/04 04:10:08;;;;;;;18.63;3.42;;;13.00;99.90;;;;;;4899933;29;20276;-67
2023/10/04 04:12:39;;;;;;;20.25;4.28;;;13.00;99.90;;;;;;4899557;29;20315;-67
2023/10/04 04:15:08;;;;;;;15.52;3.22;;;13.00;99.90;;;;;;4913950;29;20673;-68
2023/10/04 04:17:39;;;;;;;16.23;3.47;;;13.00;99.90;;;;;;4897823;29;20199;-68
2023/10/04 04:20:19;;;;;;;23.67;3.55;;;13.00;99.90;;;;;;4878333;29;20224;-68
2023/10/04 04:22:53;;;;;;;21.55;3.65;;;13.00;99.90;;;;;;4897880;29;20537;-67
2023/10/04 04:25:23;;;;;;;15.93;3.80;;;13.00;99.90;;;;;;4912874;29;20255;-67
2023/10/04 04:27:52;;;;;;;12.57;3.40;;;12.90;99.90;;;;;;4911475;29;20196;-67
2023/10/04 04:30:23;;;;;;;14.48;3.65;;;12.90;99.90;;;;;;4897564;29;20200;-68
2023/10/04 04:32:57;;;;;;;20.33;3.90;;;12.90;99.90;;;;;;4897762;29;20177;-68
2023/10/04 04:38:24;;;;;;;16.45;3.60;;;12.90;99.90;;;;;;4906961;29;20192;-68
2023/10/04 04:40:56;;;;;;;13.55;3.40;;;12.90;99.90;;;;;;4898427;29;20181;-66
2023/10/04 04:43:35;;;;;;;19.20;3.88;;;12.90;99.90;;;;;;4897384;29;20630;-66
2023/10/04 04:46:08;;;;;;;15.57;3.42;;;13.00;99.90;;;;;;4898659;29;20843;-66
2023/10/04 04:48:36;;;;;;;24.05;3.65;;;12.90;99.90;;;;;;4891761;29;20551;-66
2023/10/04 04:51:12;;;;;;;16.88;3.63;;;13.00;99.90;;;;;;4881592;29;20668;-66
2023/10/04 04:53:50;;;;;;;19.30;3.33;;;13.00;99.90;;;;;;4894520;29;20180;-65
2023/10/04 04:56:21;;;;;;;19.90;3.92;;;13.00;99.90;;;;;;4903840;29;20268;-65
2023/10/04 04:58:52;;;;;;;18.98;3.72;;;13.00;99.90;;;;;;4887760;29;20232;-66
2023/10/04 05:01:18;;;;;;;14.43;3.80;;;13.00;99.90;;;;;;4895721;29;20645;-68
2023/10/04 05:03:46;;;;;;;16.05;3.67;;;13.00;99.90;;;;;;4896611;29;20196;-65
2023/10/04 05:06:32;;;;;;;15.07;3.78;;;13.00;99.90;;;;;;4895168;29;20684;-67
2023/10/04 05:08:58;;;;;;;19.77;3.28;;;13.00;99.90;;;;;;4892703;29;20197;-66
2023/10/04 05:11:24;;;;;;;13.85;3.83;;;13.00;99.90;;;;;;4895517;29;20327;-67
2023/10/04 05:13:51;;;;;;;13.68;3.47;;;13.00;99.90;;;;;;4879820;29;20193;-66
2023/10/04 05:16:17;;;;;;;13.57;3.65;;;13.00;99.90;;;;;;4895417;29;20256;-65
2023/10/04 05:18:43;;;;;;;17.90;4.10;;;13.00;99.90;;;;;;4896944;29;20216;-67
2023/10/04 05:21:14;;;;;;;20.33;3.72;;;13.00;99.90;;;;;;4880173;29;20535;-66
2023/10/04 05:23:40;;;;;;;19.50;3.47;;;13.00;99.90;;;;;;4894826;29;20207;-71
2023/10/04 05:26:08;;;;;;;15.05;3.33;;;12.90;99.90;;;;;;4890360;29;20287;-66
2023/10/04 05:28:35;;;;;;;10.75;3.35;;;12.90;99.90;;;;;;4893059;29;20198;-68
2023/10/04 05:31:01;;;;;;;25.90;3.47;;;12.90;99.90;;;;;;4893968;29;20260;-70
2023/10/04 05:33:27;;;;;;;25.25;4.07;;;12.90;99.90;;;;;;4892183;29;20196;-67
2023/10/04 05:35:56;;;;;;;23.60;3.95;;;12.90;99.90;;;;;;4895083;29;20253;-69
2023/10/04 05:38:22;;;;;;;20.63;3.47;;;13.00;99.90;;;;;;4893630;29;20256;-69
2023/10/04 05:40:49;;;;;;;19.48;3.65;;;13.00;99.90;;;;;;4896230;29;20196;-67
2023/10/04 05:43:17;;;;;;;20.40;4.00;;;13.00;99.90;;;;;;4896162;29;20216;-68
2023/10/04 05:45:47;;;;;;;18.67;3.75;;;13.00;99.90;;;;;;4911462;29;20283;-70
2023/10/04 05:48:15;;;;;;;17.95;3.70;;;13.10;99.90;;;;;;4894345;29;20201;-68
2023/10/04 05:50:42;;;;;;;22.35;3.33;;;13.10;99.90;;;;;;4894238;29;20669;-69
2023/10/04 05:53:09;;;;;;;16.50;3.50;;;13.10;99.90;;;;;;4896193;29;20184;-69
2023/10/04 05:55:37;;;;;;;18.33;3.55;;;13.10;99.90;;;;;;4894869;29;20212;-69
2023/10/04 05:58:07;;;;;;;17.13;3.58;;;13.10;99.90;;;;;;4892320;29;20199;-69
2023/10/04 06:00:42;;;;;;;18.23;3.80;;;13.10;99.90;;;;;;4877650;29;20275;-69
2023/10/04 06:03:12;;;;;;;18.00;4.07;;;13.10;99.90;;;;;;4895691;29;20230;-67
2023/10/04 06:05:41;;;;;;;18.67;4.10;;;13.10;99.90;;;;;;4896691;29;20189;-68
2023/10/04 06:08:18;;;;;;;17.95;3.83;;;13.10;99.90;;;;;;4896435;29;20283;-68
2023/10/04 06:10:45;;;;;;;14.82;3.85;;;13.10;99.90;;;;;;4894708;29;20180;-70
2023/10/04 06:13:13;;;;;;;18.30;4.07;;;13.10;99.90;;;;;;4891375;29;20296;-68
2023/10/04 06:15:50;;;;;;;16.17;3.78;;;13.10;99.90;;;;;;4894998;29;20598;-69
2023/10/04 06:18:16;;;;;;;19.50;3.85;;;13.10;99.90;;;;;;4896642;29;20240;-70
2023/10/04 06:20:43;;;;;;;19.63;4.00;;;13.10;99.90;;;;;;4881143;29;20204;-70
2023/10/04 06:23:14;;;;;;;16.90;3.85;;;13.10;99.90;;;;;;4894925;29;20243;-67
2023/10/04 06:25:44;;;;;;;17.42;4.43;;;13.10;99.90;;;;;;4895004;29;20653;-70
2023/10/04 06:28:10;;;;;;;14.68;4.20;;;13.10;99.90;;;;;;4894191;29;20332;-68
2023/10/04 06:30:37;;;;;;;11.57;3.85;;;13.10;99.90;;;;;;4893863;29;20189;-68
2023/10/04 06:33:05;;;;;;;17.90;4.25;;;13.10;99.90;;;;;;4896206;29;20200;-68
2023/10/04 06:35:32;;;;;;;18.83;4.50;;;13.10;99.90;;;;;;4878640;29;20192;-70
2023/10/04 06:38:00;;;;;;;19.73;4.60;;;13.20;99.90;;;;;;4895706;29;20206;-68
2023/10/04 06:40:30;;;;;;;17.73;4.20;;;13.20;99.90;;;;;;4909109;29;20184;-68
2023/10/04 06:42:56;;;;;;;18.65;4.28;;;13.20;99.90;;;;;;4895053;29;20263;-68
2023/10/04 06:45:26;;;;;;;18.70;4.78;;;13.30;99.90;;;;;;4895531;29;20640;-68
2023/10/04 06:47:54;;;;;;;19.52;4.85;;;13.30;99.90;;;;;;4895854;29;20189;-68
2023/10/04 06:50:22;;;;;;;20.05;4.85;;;13.30;99.90;;;;;;4879327;29;20562;-66
2023/10/04 06:52:49;;;;;;;17.77;4.50;;;13.40;99.90;;;;;;4886156;29;20199;-67
2023/10/04 06:55:16;;;;;;;19.92;4.57;;;13.40;99.90;;;;;;4896597;29;20191;-70
2023/10/04 06:57:43;;;;;;;19.45;5.10;;;13.40;99.90;;;;;;4896029;29;20196;-62
2023/10/04 07:00:15;;;;;;;17.92;4.82;;;13.50;99.90;;;;;;4896037;29;20196;-60
2023/10/04 07:02:47;;;;;;;15.80;4.45;;;13.50;99.90;;;;;;4891734;29;20208;-61
2023/10/04 07:05:24;;;;;;;22.17;4.70;;;13.60;99.90;;;;;;4896579;29;20204;-62
2023/10/04 07:07:56;;;;;;;15.15;4.32;;;13.60;99.90;;;;;;4895054;29;20255;-61
2023/10/04 07:10:25;;;;;;;16.42;4.80;;;13.60;99.90;;;;;;4895281;29;20220;-62
2023/10/04 07:12:52;;;;;;;15.48;5.35;;;13.70;99.90;;;;;;4906733;29;20221;-64
2023/10/04 07:15:19;;;;;;;21.90;4.70;;;13.80;99.90;;;;;;4890509;29;20202;-60
2023/10/04 07:17:47;;;;;;;22.20;4.35;;;13.80;99.90;;;;;;4904334;29;20227;-60
2023/10/04 07:20:15;;;;;;;23.73;4.80;;;13.90;99.90;;;;;;4896098;29;20280;-60
2023/10/04 07:23:03;;;;;;;15.93;5.05;;;13.90;99.90;;;;;;4893676;29;20688;-62
2023/10/04 07:25:31;;;;;;;19.13;4.93;;;14.00;99.90;;;;;;4898623;29;20544;-62
2023/10/04 07:28:02;;;;;;;20.13;4.47;;;14.10;99.90;;;;;;4900131;29;20188;-60
2023/10/04 07:30:30;;;;;;;15.57;4.20;;;14.10;99.90;;;;;;4899295;29;20244;-61
2023/10/04 07:32:58;;;;;;;15.43;4.97;;;14.20;99.90;;;;;;4875235;29;20233;-62
2023/10/04 07:35:25;;;;;;;15.27;4.63;;;14.30;99.90;;;;;;4900864;29;20689;-62
2023/10/04 07:37:56;;;;;;;21.52;4.78;;;14.30;99.90;;;;;;4897203;29;20197;-62
2023/10/04 07:40:24;;;;;;;15.25;4.25;;;14.40;99.90;;;;;;4900801;29;20265;-62
2023/10/04 07:42:53;;;;;;;15.38;4.97;;;14.40;99.90;;;;;;4899714;29;20295;-62
2023/10/04 07:45:23;;;;;;;20.90;4.82;;;14.50;99.90;;;;;;4898045;29;20288;-60
2023/10/04 07:47:50;;;;;;;14.27;4.20;;;14.60;99.90;;;;;;4899164;29;20181;-60
2023/10/04 07:50:22;;;;;;;17.00;4.97;;;14.70;99.90;;;;;;4899622;29;20229;-63
2023/10/04 07:52:50;;;;;;;13.23;4.25;;;14.70;99.90;;;;;;4899299;29;20214;-61
2023/10/04 07:55:20;;;;;;;23.67;5.05;;;14.80;99.90;;;;;;4898178;29;20311;-61
2023/10/04 07:57:46;;;;;;;20.50;4.97;;;14.90;99.90;;;;;;4882482;29;20196;-62
2023/10/04 08:00:16;;;;;;;16.73;4.88;;;15.00;99.90;;;;;;4897021;29;20618;-62
2023/10/04 08:02:49;;;;;;;18.55;4.70;;;15.00;99.90;;;;;;4892044;29;20232;-62
2023/10/04 08:05:23;;;;;;;21.92;4.80;;;15.10;99.90;;;;;;4897547;29;20235;-61
2023/10/04 08:07:53;;;;;;;17.25;4.93;;;15.20;99.90;;;;;;4896925;29;20296;-62
2023/10/04 08:10:23;;;;;;;20.55;5.47;;;15.30;99.90;;;;;;4895576;29;20211;-60
2023/10/04 08:12:54;;;;;;;22.30;4.80;;;15.30;99.90;;;;;;4898394;29;20533;-61
2023/10/04 08:15:22;;;;;;;16.00;4.30;;;15.40;99.90;;;;;;4897678;29;20248;-61
2023/10/04 08:17:49;;;;;;;23.23;5.57;;;15.50;99.90;;;;;;4897835;29;20271;-63
2023/10/04 08:20:16;;;;;;;20.02;5.18;;;15.60;99.90;;;;;;4898588;29;20294;-63
2023/10/04 08:22:42;;;;;;;21.35;5.25;;;15.70;99.90;;;;;;4896893;29;20301;-62
2023/10/04 08:25:13;;;;;;;20.92;4.88;;;15.70;99.90;;;;;;4898260;29;20601;-63
2023/10/04 08:27:40;;;;;;;19.83;5.47;;;15.90;99.90;;;;;;4897034;29;20218;-62
2023/10/04 08:30:08;;;;;;;15.32;5.03;;;15.90;99.90;;;;;;4912555;29;20287;-61
2023/10/04 08:32:34;;;;;;;23.42;5.63;;;15.90;99.90;;;;;;4894291;29;20291;-61
2023/10/04 08:35:00;;;;;;;14.23;5.15;;;16.00;99.90;;;;;;4893259;29;20192;-62
2023/10/04 08:37:27;;;;;;;17.23;4.82;;;16.10;99.90;;;;;;4896473;29;20216;-63
2023/10/04 08:39:53;;;;;;;18.95;5.25;;;16.10;99.90;;;;;;4911074;29;20210;-62
2023/10/04 08:42:20;;;;;;;21.30;5.55;;;16.10;99.90;;;;;;4895556;29;20221;-63
2023/10/04 08:44:46;;;;;;;17.45;5.15;;;16.20;99.90;;;;;;4897874;29;20607;-63
2023/10/04 08:47:13;;;;;;;20.58;5.22;;;16.20;99.90;;;;;;4897090;29;20185;-62
2023/10/04 08:49:49;;;;;;;17.33;5.20;;;16.20;99.90;;;;;;4897835;29;20253;-63
2023/10/04 08:52:35;;;;;;;18.48;5.35;;;16.30;99.90;;;;;;4898513;29;20196;-63
2023/10/04 08:55:07;;;;;;;15.20;4.75;;;16.40;99.90;;;;;;4898165;29;20181;-62
2023/10/04 08:57:39;;;;;;;20.73;5.13;;;16.40;99.90;;;;;;4898134;29;20180;-63
2023/10/04 09:00:13;;;;;;;20.35;5.43;;;16.50;99.90;;;;;;4894746;29;20788;-61
2023/10/04 09:02:45;;;;;;;13.82;5.00;;;16.50;99.90;;;;;;4896527;29;20216;-61
2023/10/04 09:05:16;;;;;;;20.48;5.20;;;16.60;99.90;;;;;;4897296;29;20196;-61
2023/10/04 09:07:43;;;;;;;16.42;4.85;;;16.60;99.90;;;;;;4912255;29;20199;-61
2023/10/04 09:10:17;;;;;;;18.15;5.47;;;16.60;99.90;;;;;;4894836;29;20197;-62
2023/10/04 09:12:43;;;;;;;16.05;4.93;;;16.70;99.90;;;;;;4897706;29;20638;-62
2023/10/04 09:15:13;;;;;;;21.17;5.25;;;16.70;99.90;;;;;;4897652;29;20228;-60
2023/10/04 09:17:47;;;;;;;21.15;4.82;;;16.70;99.90;;;;;;4897198;29;20732;-63
2023/10/04 09:20:17;;;;;;;18.48;5.10;;;16.70;99.90;;;;;;4896773;29;20196;-62
2023/10/04 09:22:43;;;;;;;13.73;5.07;;;16.70;99.90;;;;;;4897620;29;20235;-62
2023/10/04 09:25:15;;;;;;;15.05;5.13;;;16.80;99.90;;;;;;4896856;29;20201;-62
2023/10/04 09:27:54;;;;;;;18.15;5.15;;;16.80;99.90;;;;;;4897632;29;20215;-62
2023/10/04 09:30:23;;;;;;;16.95;5.72;;;16.90;99.90;;;;;;4879688;29;20538;-62
2023/10/04 09:32:54;;;;;;;15.23;5.43;;;17.00;99.90;;;;;;4897430;29;20187;-64
2023/10/04 09:35:20;;;;;;;14.73;5.50;;;17.10;99.90;;;;;;4890276;29;20193;-60
2023/10/04 09:37:49;;;;;;;19.90;5.70;;;17.20;99.90;;;;;;4896570;29;20251;-63
2023/10/04 09:40:18;;;;;;;18.15;5.30;;;17.30;99.90;;;;;;4896375;29;20188;-62
2023/10/04 09:42:53;;;;;;;20.35;4.97;;;17.30;99.90;;;;;;4897348;29;20224;-61
2023/10/04 09:45:20;;;;;;;17.33;4.88;;;17.40;99.90;;;;;;4897147;29;20763;-62
2023/10/04 09:47:53;;;;;;;17.70;5.25;;;17.50;99.90;;;;;;4895391;29;20192;-61
2023/10/04 09:50:24;;;;;;;13.68;4.78;;;17.50;99.90;;;;;;4894623;29;20283;-61
2023/10/04 09:52:51;;;;;;;14.10;5.35;;;17.50;99.90;;;;;;4897051;29;20196;-59
2023/10/04 09:55:17;;;;;;;18.65;4.93;;;17.60;99.90;;;;;;4896978;29;20256;-61
2023/10/04 09:57:44;;;;;;;17.77;5.47;;;17.60;99.90;;;;;;4894633;29;20188;-62
2023/10/04 10:00:17;;;;;;;13.45;4.75;;;17.70;99.90;;;;;;4895332;29;20193;-60
2023/10/04 10:02:48;;;;;;;18.83;4.75;;;17.70;99.90;;;;;;4897268;29;20224;-62
2023/10/04 10:05:26;;;;;;;17.25;4.55;;;17.80;99.90;;;;;;4895474;29;20191;-63
2023/10/04 10:07:54;;;;;;;14.82;5.05;;;17.90;99.90;;;;;;4894987;29;20224;-63
2023/10/04 10:10:21;;;;;;;12.32;4.93;;;17.90;99.90;;;;;;4892381;29;20220;-63
2023/10/04 10:12:51;;;;;;;19.10;5.10;;;18.00;99.90;;;;;;4896588;29;20228;-63
2023/10/04 10:15:21;;;;;;;17.27;6.10;;;18.00;99.90;;;;;;4893355;29;20303;-62
2023/10/04 10:17:48;;;;;;;15.45;4.85;;;18.10;99.90;;;;;;4895232;29;20649;-63
2023/10/04 10:20:16;;;;;;;16.42;5.38;;;18.20;99.90;;;;;;4893730;29;20196;-64
2023/10/04 10:23:00;;;;;;;18.48;5.63;;;18.30;99.90;;;;;;4896168;29;20216;-62
2023/10/04 10:25:27;;;;;;;14.27;4.97;;;18.30;99.90;;;;;;4896724;29;20192;-62
2023/10/04 10:27:57;;;;;;;14.75;4.30;;;18.40;99.90;;;;;;4898047;29;20197;-61
2023/10/04 10:30:24;;;;;;;20.55;5.75;;;18.40;99.90;;;;;;4897788;29;20254;-63
2023/10/04 10:32:54;;;;;;;18.15;5.57;;;18.40;99.90;;;;;;4898743;29;20196;-62
2023/10/04 10:35:58;;;;;;;19.98;5.85;;;18.40;99.90;;;;;;4914081;29;20617;-63
2023/10/04 10:38:40;;;;;;;22.55;5.30;;;18.40;99.90;;;;;;4889407;29;20283;-63
2023/10/04 10:41:07;;;;;;;16.15;5.40;;;18.40;99.90;;;;;;4887164;29;20228;-61
2023/10/04 10:43:35;;;;;;;14.95;5.03;;;18.50;99.90;;;;;;4896097;29;20227;-67
2023/10/04 10:46:28;;;;;;;15.75;5.18;;;18.40;99.90;;;;;;4910782;29;20195;-63
2023/10/04 10:49:03;;;;;;;20.58;4.97;;;18.40;99.90;;;;;;4895892;29;20261;-63
2023/10/04 10:51:42;;;;;;;19.52;5.57;;;18.40;99.90;;;;;;4894959;29;20195;-61
2023/10/04 10:54:08;;;;;;;18.30;5.72;;;18.40;99.90;;;;;;4894880;29;20215;-64
2023/10/04 10:56:37;;;;;;;21.30;5.47;;;18.40;99.90;;;;;;4894766;29;20220;-62
2023/10/04 10:59:06;;;;;;;17.10;5.32;;;18.40;99.90;;;;;;4896003;29;20188;-61
2023/10/04 11:01:32;;;;;;;19.20;5.97;;;18.30;99.90;;;;;;4894667;29;20227;-63
2023/10/04 11:04:01;;;;;;;17.23;5.05;;;18.30;99.90;;;;;;4895178;29;20224;-62
2023/10/04 11:06:27;;;;;;;18.40;5.50;;;18.30;99.90;;;;;;4896071;29;20208;-62
2023/10/04 11:08:55;;;;;;;16.60;5.20;;;18.40;99.90;;;;;;4895634;29;20260;-62
2023/10/04 11:11:22;;;;;;;17.23;5.28;;;18.40;99.90;;;;;;4895692;29;20590;-61
2023/10/04 11:13:48;;;;;;;17.83;6.00;;;18.40;99.90;;;;;;4894621;29;20260;-62
2023/10/04 11:16:14;;;;;;;18.95;5.50;;;18.40;99.90;;;;;;4895225;29;20291;-62
2023/10/04 11:18:40;;;;;;;14.75;5.47;;;18.40;99.90;;;;;;4894790;29;20199;-62
2023/10/04 11:21:06;;;;;;;17.92;5.53;;;18.40;99.90;;;;;;4895703;29;20189;-60
2023/10/04 11:23:34;;;;;;;15.00;5.25;;;18.50;99.90;;;;;;4894415;29;20220;-61
2023/10/04 11:26:00;;;;;;;16.48;5.57;;;18.50;99.90;;;;;;4894319;29;20216;-63
2023/10/04 11:28:30;;;;;;;14.82;5.18;;;18.50;99.90;;;;;;4895727;29;20196;-62
2023/10/04 11:30:56;;;;;;;14.68;5.63;;;18.60;99.90;;;;;;4895671;29;20310;-61
2023/10/04 11:33:23;;;;;;;17.13;5.93;;;18.60;99.90;;;;;;4909899;29;20188;-61
2023/10/04 11:35:49;;;;;;;16.55;5.68;;;18.60;99.90;;;;;;4893966;29;20190;-61
2023/10/04 11:38:18;;;;;;;19.35;5.85;;;18.60;99.90;;;;;;4895283;29;20722;-61
2023/10/04 11:40:47;;;;;;;16.10;5.80;;;18.60;99.90;;;;;;4894750;29;20192;-62
2023/10/04 11:43:14;;;;;;;16.35;5.97;;;18.60;99.90;;;;;;4895514;29;20638;-62
2023/10/04 11:45:40;;;;;;;17.95;5.65;;;18.70;99.90;;;;;;4892716;29;20642;-63
2023/10/04 11:48:08;;;;;;;12.93;5.53;;;18.80;99.90;;;;;;4894763;29;20270;-62
2023/10/04 11:50:43;;;;;;;16.10;5.78;;;18.80;99.90;;;;;;4895526;29;20219;-62
2023/10/04 11:53:12;;;;;;;14.27;5.68;;;18.80;99.90;;;;;;4895412;29;20188;-63
2023/10/04 11:55:39;;;;;;;16.52;5.20;;;18.80;99.90;;;;;;4894172;29;20193;-62
2023/10/04 11:58:06;;;;;;;21.65;5.65;;;18.80;99.90;;;;;;4894441;29;20626;-62
2023/10/04 12:00:32;;;;;;;19.65;5.78;;;18.90;99.90;;;;;;4895305;29;20621;-64
2023/10/04 12:02:59;;;;;;;15.50;5.43;;;18.90;99.90;;;;;;4872856;29;20220;-62
2023/10/04 12:05:26;;;;;;;14.25;6.57;;;18.90;99.90;;;;;;4893442;29;20196;-62
2023/10/04 12:07:54;;;;;;;16.40;5.07;;;18.90;99.90;;;;;;4894158;29;20177;-63
2023/10/04 12:10:21;;;;;;;15.68;5.38;;;19.00;99.90;;;;;;4888262;29;20636;-64
2023/10/04 12:12:47;;;;;;;12.73;4.82;;;19.00;99.90;;;;;;4897828;29;20311;-63
2023/10/04 12:15:14;;;;;;;18.38;5.75;;;19.00;99.90;;;;;;4899069;29;20221;-63
2023/10/04 12:17:40;;;;;;;15.45;5.15;;;19.00;99.90;;;;;;4911483;29;20185;-61
2023/10/04 12:20:11;;;;;;;14.57;5.10;;;19.00;99.90;;;;;;4896366;29;20976;-63
2023/10/04 12:22:37;;;;;;;14.93;4.88;;;19.10;99.90;;;;;;4895563;29;20213;-61
2023/10/04 12:25:04;;;;;;;13.07;4.70;;;19.10;99.90;;;;;;4898110;29;20244;-63
2023/10/04 12:27:30;;;;;;;11.13;4.32;;;19.10;99.90;;;;;;4898164;29;20231;-63
2023/10/04 12:29:57;;;;;;;10.70;4.25;;;19.20;99.90;;;;;;4899128;29;20212;-63
2023/10/04 12:32:23;;;;;;;16.15;4.10;;;19.10;99.90;;;;;;4898513;29;20220;-64
2023/10/04 12:34:49;;;;;;;12.32;3.80;;;19.10;99.90;;;;;;4898336;29;20239;-64
2023/10/04 12:37:15;;;;;;;13.15;3.78;;;19.10;99.90;;;;;;4877946;29;20216;-63
2023/10/04 12:39:43;;;;;;;10.30;3.80;;;19.10;99.90;;;;;;4897517;29;20200;-64
2023/10/04 12:42:09;;;;;;;12.90;4.03;;;19.10;99.90;;;;;;4897974;29;20224;-64
2023/10/04 12:44:41;;;;;;;12.63;3.85;;;19.10;99.90;;;;;;4898480;29;20200;-64
2023/10/04 12:47:08;;;;;;;12.88;4.07;;;19.10;99.90;;;;;;4896475;29;20185;-64
2023/10/04 12:49:34;;;;;;;10.13;4.22;;;19.10;99.90;;;;;;4898205;29;20197;-64